Accueil
METAR-TAF:

METAR-TAF

Aéroports :

Garfield County Regional Airport

Rifle, Colorado, États-Unis

latitude: 39-31-30N, longitude: 107-43-38W, altitude: 1690 m

Observation

Le bulletin a été fait il y a 39 minutes, à 20:53 UTC
Vent 6 kt de ouest
Température 28°C
Humidité 19%
Pression 1025 hPa
Visibilité: 16.1 km
Ciel clair

METAR: KRIL 262053Z AUTO 28006KT 10SM CLR 28/02 A3026 RMK AO2 SLP188 T02780017 56027

Heure: 15:32 (21:32 UTC)

Prévision

Le bulletin a été fait il y a 3 heures et 55 minutes, à 17:37 UTC
Prévision valable du 26 à 18 UTC au 27 à 18 UTC
Vent 4 kt de direction variable
Visibilité: 10 km
Ciel clair
A partir de 26 à 2000 UTC
Vent 9 kt de ouest
Visibilité: 10 km
Ciel clair
A partir de 27 à 0300 UTC
Vent 4 kt de direction variable
Visibilité: 10 km
Ciel clair

TAF: KRIL 261737Z 2618/2718 VRB04KT P6SM SKC FM262000 28009KT P6SM SKC FM270300 VRB04KT P6SM SKC

Observations et prévisions météorologiques de plus de 4000 aéroports (messages METAR et TAF).

Les stations disponibles sont représentées par des disques jaunes et rouges sur la carte.

Passer la souris dessus pour voir le nom de la station.

Cliquer dessus pour voir les observations et prévisions météorologiques.

Pour changer de carte: cliquez sur les boutons verts avec une croix noire pour zoomer, sur le bouton vert avec un tiret pour effectuer un zoom arrière, ou sur les flèches vertes pour les cartes adjacentes.


METAR-TAF: